logo
Search for airport 
image banner adimage banner adimage banner ad
image banner ad

SHAS - Aerosentrans

Located in Pudahuel, Chile

ICAO - , IATA -

Data provided by Airmate  

General information

Coordinates: S33°26'24" W70°49'54"
Elevation is 1590 feet MSL.
 
View others Airports in Santiago Metropolitan Region

Operational data

Special qualification required
Current time UTC:
Current local time:
Weather at : SCEL - Arturo Merino Benitez ( 6 km )
METAR: SCEL 220300Z 01011KT 8000 -SHRA BKN060 BKN100 08/05 Q1018 NOSIG
TAF: TAF COR SCEL 212335Z 2200/2224 36005KT 8000 RA BKN030 OVC045 TX10/2218Z TN05/2210Z BECMG 2203/2205 9000 SHRA BKN030 BKN050 BECMG 2207/2209 16005KT TEMPO 2212/2215 7000 SHRA BECMG 2217/2219 8000 SHRA SCT020 BKN040
View NOTAMs / SUP AIP / TFR affecting this airport [VIEW]
Communications frequencies: [VIEW]

Runways:

Airport contact information

Address: Pudahuel Chile

Satellite view of SHAS